createdAt,value
2022-10-08T00:01:09.638Z,12.15
2022-10-08T00:02:42.748Z,12.18
2022-10-08T00:04:17.675Z,12.19
2022-10-08T00:06:00.795Z,12.23
2022-10-08T00:07:34.094Z,12.25
2022-10-08T00:09:08.782Z,12.28
2022-10-08T00:10:41.186Z,12.26
2022-10-08T00:12:14.669Z,12.23
2022-10-08T00:13:48.436Z,12.25
2022-10-08T00:15:21.639Z,12.25
2022-10-08T00:16:55.076Z,12.24
2022-10-08T00:18:30.276Z,12.21
2022-10-08T00:20:05.882Z,12.19
2022-10-08T00:21:41.079Z,12.15
2022-10-08T00:23:14.918Z,12.14
2022-10-08T00:24:49.897Z,12.11
2022-10-08T00:26:25.722Z,12.13
2022-10-08T00:27:58.696Z,12.10
2022-10-08T00:29:33.991Z,12.09
2022-10-08T00:31:07.501Z,12.09
2022-10-08T00:32:40.817Z,12.08
2022-10-08T00:34:15.077Z,12.04
2022-10-08T00:35:50.324Z,12.03
2022-10-08T00:37:23.572Z,12.02
2022-10-08T00:38:57.887Z,12.02
2022-10-08T00:40:31.108Z,12.00
2022-10-08T00:42:05.071Z,12.01
2022-10-08T00:43:42.647Z,11.99
2022-10-08T00:45:15.778Z,11.96
2022-10-08T00:46:51.191Z,11.99
2022-10-08T00:48:26.090Z,11.99
2022-10-08T00:50:02.985Z,11.96
2022-10-08T00:51:38.184Z,12.02
2022-10-08T00:53:11.602Z,12.03
2022-10-08T00:54:44.886Z,11.99
2022-10-08T00:56:18.495Z,11.96
2022-10-08T00:57:52.607Z,11.93
2022-10-08T00:59:26.380Z,11.91
2022-10-08T01:01:00.524Z,11.93
2022-10-08T02:07:42.752Z,11.32
2022-10-08T02:09:15.426Z,11.24
2022-10-08T02:10:48.710Z,11.18
2022-10-08T02:12:23.967Z,11.15
2022-10-08T02:13:57.201Z,11.19
2022-10-08T02:15:39.788Z,11.22
2022-10-08T02:17:23.222Z,11.30
2022-10-08T02:19:05.088Z,11.35
2022-10-08T02:20:41.973Z,11.39
2022-10-08T02:22:19.674Z,11.31
2022-10-08T02:24:02.010Z,11.38
2022-10-08T02:25:41.330Z,11.39
2022-10-08T02:27:16.366Z,11.43
2022-10-08T02:28:56.180Z,11.41
2022-10-08T02:30:35.160Z,11.36
2022-10-08T02:32:18.783Z,11.35
2022-10-08T02:33:57.281Z,11.31
2022-10-08T02:35:36.162Z,11.30
2022-10-08T02:37:15.837Z,11.32
2022-10-08T02:38:53.870Z,11.32
2022-10-08T02:40:31.623Z,11.31
2022-10-08T02:42:10.467Z,11.34
2022-10-08T02:43:48.175Z,11.39
2022-10-08T02:45:25.219Z,11.42
2022-10-08T02:47:02.407Z,11.44
2022-10-08T02:48:42.463Z,11.42
2022-10-08T02:50:21.935Z,11.50
2022-10-08T02:51:56.189Z,11.51
2022-10-08T02:53:30.759Z,11.55
2022-10-08T02:55:08.233Z,11.60
2022-10-08T02:56:48.844Z,11.63
2022-10-08T02:58:23.462Z,11.63
2022-10-08T02:59:56.147Z,11.65
2022-10-08T03:01:39.300Z,11.66
2022-10-08T03:03:13.972Z,11.67
2022-10-08T03:04:53.284Z,11.69
2022-10-08T03:06:28.758Z,11.70
2022-10-08T03:08:04.694Z,11.69
2022-10-08T03:09:40.822Z,11.67
2022-10-08T03:11:15.246Z,11.67
2022-10-08T03:12:50.644Z,11.64
2022-10-08T03:14:26.295Z,11.71
2022-10-08T03:15:59.821Z,11.75
2022-10-08T03:17:38.042Z,11.77
2022-10-08T03:19:13.223Z,11.75
2022-10-08T03:20:51.941Z,11.70
2022-10-08T03:22:26.550Z,11.63
2022-10-08T03:24:00.089Z,11.63
2022-10-08T03:25:32.278Z,11.61
2022-10-08T03:27:05.705Z,11.63
2022-10-08T03:28:40.628Z,11.57
2022-10-08T03:30:14.847Z,11.53
2022-10-08T03:31:48.898Z,11.51
2022-10-08T03:33:21.300Z,11.49
2022-10-08T03:34:55.183Z,11.48
2022-10-08T03:36:29.881Z,11.47
2022-10-08T03:38:03.102Z,11.48
2022-10-08T03:39:35.370Z,11.41
2022-10-08T04:43:50.561Z,10.82
2022-10-08T04:45:23.847Z,10.74
2022-10-08T04:46:57.201Z,10.72
2022-10-08T04:48:29.479Z,10.69
2022-10-08T04:50:02.894Z,10.64
2022-10-08T04:51:36.097Z,10.61
2022-10-08T04:53:08.355Z,10.59
2022-10-08T04:54:41.561Z,10.57
2022-10-08T04:56:18.222Z,10.60
2022-10-08T04:57:51.596Z,10.67
2022-10-08T04:59:26.836Z,10.72
2022-10-08T05:01:04.211Z,10.82
2022-10-08T05:02:38.722Z,11.02
2022-10-08T05:04:10.938Z,11.33
2022-10-08T05:05:45.202Z,11.68
2022-10-08T05:07:18.531Z,12.07
2022-10-08T05:08:53.352Z,12.43
2022-10-08T05:10:26.887Z,12.73
2022-10-08T05:12:00.249Z,12.93
2022-10-08T05:13:32.623Z,13.00
2022-10-08T05:15:08.980Z,13.10
2022-10-08T05:16:42.175Z,13.36
2022-10-08T05:18:14.589Z,13.81
2022-10-08T05:19:47.756Z,14.13
2022-10-08T05:21:24.171Z,14.33
2022-10-08T05:22:56.303Z,14.51
2022-10-08T05:24:29.615Z,14.78
2022-10-08T05:26:02.529Z,15.01
2022-10-08T05:27:37.775Z,15.21
2022-10-08T05:29:10.826Z,15.41
2022-10-08T05:30:45.554Z,15.53
2022-10-08T05:32:28.879Z,15.54
2022-10-08T05:34:47.331Z,15.92
2022-10-08T05:36:43.110Z,16.31
2022-10-08T05:38:38.700Z,16.47
2022-10-08T05:40:18.267Z,16.65
2022-10-08T05:41:59.606Z,16.68
2022-10-08T05:43:41.319Z,16.77
2022-10-08T05:45:27.875Z,17.10
2022-10-08T05:47:28.838Z,17.59
2022-10-08T05:49:09.319Z,17.96
2022-10-08T05:50:43.335Z,18.27
2022-10-08T05:52:27.232Z,18.40
2022-10-08T05:54:14.087Z,18.71
2022-10-08T05:55:51.741Z,18.95
2022-10-08T05:57:25.839Z,19.07
2022-10-08T05:58:59.099Z,19.08
2022-10-08T06:00:32.336Z,18.98
2022-10-08T06:02:06.741Z,18.98
2022-10-08T06:03:41.858Z,18.99
2022-10-08T06:05:15.657Z,19.04
2022-10-08T06:06:49.019Z,19.13
2022-10-08T06:08:22.436Z,19.00
2022-10-08T06:09:55.630Z,19.01
2022-10-08T06:11:29.818Z,19.10
2022-10-08T06:13:02.978Z,19.23
2022-10-08T06:14:36.366Z,19.42
2022-10-08T06:16:11.743Z,19.75
2022-10-08T06:17:45.489Z,19.91
2022-10-08T06:19:20.130Z,19.86
2022-10-08T06:20:53.698Z,19.92
2022-10-08T06:22:26.835Z,20.13
2022-10-08T06:24:01.707Z,20.36
2022-10-08T06:25:38.245Z,20.61
2022-10-08T06:27:11.561Z,20.87
2022-10-08T06:28:43.998Z,21.04
2022-10-08T06:30:17.900Z,21.24
2022-10-08T06:31:51.001Z,21.39
2022-10-08T06:33:23.443Z,21.35
2022-10-08T06:34:58.126Z,21.22
2022-10-08T06:36:32.385Z,21.14
2022-10-08T06:38:06.397Z,21.39
2022-10-08T06:39:39.677Z,21.67
2022-10-08T06:41:11.840Z,21.83
2022-10-08T06:42:45.658Z,22.04
2022-10-08T06:44:19.323Z,22.22
2022-10-08T06:45:53.467Z,22.44
2022-10-08T06:47:26.599Z,22.38
2022-10-08T06:49:00.627Z,22.51
2022-10-08T06:50:36.201Z,22.72
2022-10-08T06:52:09.582Z,22.68
2022-10-08T06:53:43.642Z,22.64
2022-10-08T06:55:17.029Z,22.53
2022-10-08T06:56:50.213Z,22.42
2022-10-08T06:58:22.702Z,22.76
2022-10-08T06:59:57.949Z,22.76
2022-10-08T07:01:33.670Z,22.75
2022-10-08T07:03:07.395Z,22.55
2022-10-08T07:04:40.988Z,22.65
2022-10-08T07:06:16.137Z,22.81
2022-10-08T07:07:49.469Z,22.86
2022-10-08T07:09:22.635Z,22.98
2022-10-08T07:10:55.684Z,23.00
2022-10-08T07:12:28.841Z,23.18
2022-10-08T07:14:02.451Z,23.39
2022-10-08T07:15:34.595Z,23.53
2022-10-08T07:17:08.143Z,23.67
2022-10-08T07:18:41.208Z,23.78
2022-10-08T07:20:14.592Z,23.94
2022-10-08T07:21:49.105Z,23.98
2022-10-08T07:23:21.549Z,24.02
2022-10-08T07:24:54.643Z,24.14
2022-10-08T07:26:30.694Z,24.25
2022-10-08T07:28:04.092Z,24.45
2022-10-08T07:29:37.919Z,24.29
2022-10-08T07:31:14.668Z,23.69
2022-10-08T07:32:48.203Z,23.76
2022-10-08T07:34:22.103Z,23.92
2022-10-08T07:35:54.395Z,24.13
2022-10-08T07:37:29.062Z,24.29
2022-10-08T07:39:04.636Z,24.39
2022-10-08T07:40:36.949Z,24.28
2022-10-08T07:42:10.411Z,24.01
2022-10-08T07:43:44.075Z,24.07
2022-10-08T07:45:18.229Z,24.04
2022-10-08T07:46:53.516Z,24.04
2022-10-08T07:48:30.379Z,24.20
2022-10-08T07:50:07.371Z,24.46
2022-10-08T07:51:41.850Z,24.69
2022-10-08T07:53:15.508Z,24.76
2022-10-08T07:54:49.007Z,24.64
2022-10-08T07:56:23.615Z,24.73
2022-10-08T07:57:55.981Z,24.91
2022-10-08T07:59:29.210Z,25.06
2022-10-08T08:01:06.316Z,25.06
2022-10-08T08:02:39.772Z,25.09
2022-10-08T08:04:13.556Z,25.19
2022-10-08T08:05:46.859Z,25.51
2022-10-08T08:07:20.159Z,25.68
2022-10-08T08:08:54.718Z,25.78
2022-10-08T08:10:28.986Z,25.92
2022-10-08T08:12:02.229Z,25.93
2022-10-08T08:13:37.448Z,25.98
2022-10-08T08:15:11.777Z,25.93
2022-10-08T08:16:45.192Z,26.12
2022-10-08T08:18:18.526Z,26.26
2022-10-08T08:19:51.633Z,26.31
2022-10-08T08:21:27.186Z,26.37
2022-10-08T08:23:00.811Z,26.22
2022-10-08T08:24:35.387Z,26.26
2022-10-08T08:26:09.885Z,26.17
2022-10-08T08:27:43.406Z,26.08
2022-10-08T08:29:19.174Z,26.08
2022-10-08T08:30:51.471Z,26.07
2022-10-08T08:32:28.386Z,25.94
2022-10-08T08:34:02.792Z,26.24
2022-10-08T08:35:36.319Z,26.62
2022-10-08T08:37:09.553Z,26.69
2022-10-08T08:38:41.907Z,26.84
2022-10-08T08:40:16.627Z,26.85
2022-10-08T08:42:14.400Z,26.89
2022-10-08T08:43:48.313Z,26.70
2022-10-08T08:45:46.805Z,26.79
2022-10-08T08:47:25.376Z,26.62
2022-10-08T08:49:06.283Z,26.14
2022-10-08T08:50:46.662Z,26.24
2022-10-08T08:52:24.448Z,26.09
2022-10-08T08:53:57.853Z,26.10
2022-10-08T08:55:36.877Z,25.50
2022-10-08T08:57:22.984Z,25.58
2022-10-08T08:59:04.971Z,25.49
2022-10-08T09:00:42.838Z,25.58
2022-10-08T09:02:23.970Z,25.27
2022-10-08T09:04:04.878Z,25.13
2022-10-08T09:05:44.237Z,24.98
2022-10-08T09:07:21.853Z,24.96
2022-10-08T09:09:00.645Z,24.80
2022-10-08T09:10:40.552Z,24.71
2022-10-08T09:12:20.964Z,24.35
2022-10-08T09:14:01.319Z,24.21
2022-10-08T09:15:38.029Z,24.07
2022-10-08T09:17:16.748Z,24.14
2022-10-08T09:18:52.435Z,24.21
2022-10-08T09:20:26.565Z,24.27
2022-10-08T09:21:59.722Z,24.28
2022-10-08T09:23:33.542Z,24.21
2022-10-08T09:25:09.267Z,24.11
2022-10-08T09:26:44.372Z,24.11
2022-10-08T09:28:40.517Z,24.19
2022-10-08T09:30:36.241Z,23.72
2022-10-08T09:32:16.609Z,23.48
2022-10-08T09:34:06.427Z,23.34
2022-10-08T09:35:45.835Z,23.11
2022-10-08T09:37:25.424Z,22.96
2022-10-08T09:39:00.887Z,22.82
2022-10-08T09:40:34.056Z,22.78
2022-10-08T09:42:17.519Z,22.68
2022-10-08T09:44:11.209Z,22.62
2022-10-08T09:45:46.621Z,22.63
2022-10-08T09:47:23.000Z,22.53
2022-10-08T09:48:56.905Z,22.56
2022-10-08T09:50:30.149Z,22.58
2022-10-08T09:52:08.137Z,22.69
2022-10-08T09:53:44.392Z,22.69
2022-10-08T09:55:22.492Z,22.68
2022-10-08T09:56:59.013Z,22.67
2022-10-08T09:58:50.289Z,22.66
2022-10-08T10:00:26.236Z,22.61
2022-10-08T10:02:00.293Z,22.73
2022-10-08T10:03:36.144Z,22.84
2022-10-08T10:05:23.035Z,23.11
2022-10-08T10:06:56.667Z,23.35
2022-10-08T10:08:51.847Z,23.61
2022-10-08T10:10:29.135Z,23.76
2022-10-08T10:12:11.532Z,23.80
2022-10-08T10:13:49.000Z,23.90
2022-10-08T10:15:27.937Z,23.95
2022-10-08T10:17:04.772Z,24.02
2022-10-08T10:18:44.730Z,24.12
2022-10-08T10:20:23.133Z,24.17
2022-10-08T10:22:02.457Z,24.03
2022-10-08T10:23:41.481Z,23.98
2022-10-08T10:25:20.913Z,23.98
2022-10-08T10:26:58.282Z,24.00
2022-10-08T10:28:40.142Z,23.86
2022-10-08T10:30:21.167Z,23.79
2022-10-08T10:31:59.763Z,23.72
2022-10-08T10:33:36.557Z,23.53
2022-10-08T10:35:16.476Z,23.39
2022-10-08T10:36:52.947Z,23.30
2022-10-08T10:38:28.817Z,23.20
2022-10-08T10:40:18.736Z,23.11
2022-10-08T10:41:56.946Z,23.09
2022-10-08T10:43:40.764Z,23.11
2022-10-08T10:45:21.958Z,23.15
2022-10-08T10:46:59.233Z,23.20
2022-10-08T10:48:32.423Z,23.13
2022-10-08T10:50:08.726Z,23.14
2022-10-08T10:52:01.722Z,23.11
2022-10-08T10:53:47.033Z,23.19
2022-10-08T10:55:24.896Z,23.35
2022-10-08T10:57:02.924Z,23.45
2022-10-08T10:58:44.750Z,23.57
2022-10-08T11:00:25.047Z,23.69
2022-10-08T11:02:10.552Z,23.62
2022-10-08T11:03:51.450Z,23.61
2022-10-08T11:05:26.922Z,23.49
2022-10-08T11:07:06.492Z,23.41
2022-10-08T11:08:45.998Z,23.36
2022-10-08T11:10:33.372Z,23.37
2022-10-08T11:12:22.183Z,23.36
2022-10-08T11:14:05.890Z,23.28
2022-10-08T11:15:46.893Z,23.22
2022-10-08T11:17:35.943Z,23.21
2022-10-08T11:19:20.134Z,23.19
2022-10-08T11:21:07.737Z,23.14
2022-10-08T11:22:50.485Z,23.08
2022-10-08T11:24:48.729Z,23.08
2022-10-08T11:26:28.422Z,23.13
2022-10-08T11:28:15.297Z,23.19
2022-10-08T11:29:57.524Z,23.20
2022-10-08T11:31:41.783Z,23.30
2022-10-08T11:33:16.705Z,23.36
2022-10-08T11:34:54.436Z,23.52
2022-10-08T11:36:37.787Z,23.51
2022-10-08T11:38:18.552Z,23.51
2022-10-08T11:40:00.881Z,23.35
2022-10-08T11:41:42.448Z,23.22
2022-10-08T11:43:26.288Z,23.20
2022-10-08T11:45:15.088Z,23.29
2022-10-08T11:46:49.880Z,23.28
2022-10-08T11:48:34.576Z,23.32
2022-10-08T11:50:24.466Z,23.40
2022-10-08T11:51:57.920Z,23.48
2022-10-08T11:53:31.191Z,23.35
2022-10-08T11:55:04.731Z,23.27
2022-10-08T11:56:41.520Z,23.25
2022-10-08T11:58:23.986Z,23.22
2022-10-08T12:00:06.927Z,23.06
2022-10-08T12:01:54.175Z,23.09
2022-10-08T12:03:30.602Z,23.15
2022-10-08T12:05:35.765Z,23.23
2022-10-08T12:07:29.938Z,23.37
2022-10-08T12:09:05.936Z,23.41
2022-10-08T12:10:40.836Z,23.36
2022-10-08T12:12:14.394Z,23.47
2022-10-08T12:14:26.029Z,23.44
2022-10-08T12:16:11.105Z,23.44
2022-10-08T12:17:53.640Z,23.53
2022-10-08T12:20:07.214Z,23.50
2022-10-08T12:21:50.509Z,23.53
2022-10-08T12:23:39.319Z,23.59
2022-10-08T12:28:50.683Z,23.37
2022-10-08T12:30:48.215Z,23.25
2022-10-08T12:32:21.619Z,23.15
2022-10-08T12:34:05.096Z,23.17
2022-10-08T12:35:59.947Z,23.17
2022-10-08T12:38:01.187Z,23.19
2022-10-08T12:39:40.666Z,23.16
2022-10-08T12:41:22.261Z,23.11
2022-10-08T12:43:07.082Z,23.13
2022-10-08T12:44:50.989Z,23.13
2022-10-08T12:46:37.851Z,23.12
2022-10-08T12:48:21.230Z,23.18
2022-10-08T12:50:02.275Z,23.21
2022-10-08T12:51:46.735Z,23.17
2022-10-08T12:53:20.147Z,23.08
2022-10-08T12:54:54.931Z,23.14
2022-10-08T12:56:31.261Z,23.17
2022-10-08T12:58:04.580Z,23.18
2022-10-08T12:59:41.725Z,23.18
2022-10-08T13:01:17.807Z,23.19
2022-10-08T13:03:01.232Z,23.21
2022-10-08T13:04:34.738Z,23.26
2022-10-08T13:06:33.018Z,23.27
2022-10-08T13:08:30.065Z,23.32
2022-10-08T13:10:18.556Z,23.32
2022-10-08T13:11:56.274Z,23.36
2022-10-08T13:13:50.726Z,23.43
2022-10-08T13:15:25.190Z,23.40
2022-10-08T13:16:59.228Z,23.43
2022-10-08T13:18:34.461Z,23.37
2022-10-08T13:20:13.598Z,23.34
2022-10-08T13:21:58.751Z,23.35
2022-10-08T13:23:37.863Z,23.37
2022-10-08T13:25:36.614Z,23.27
2022-10-08T13:27:24.517Z,23.27
2022-10-08T13:29:19.295Z,23.19
2022-10-08T13:30:57.449Z,23.19
2022-10-08T13:32:35.072Z,23.22
2022-10-08T13:34:18.303Z,23.21
2022-10-08T13:35:53.829Z,23.19
2022-10-08T13:37:31.886Z,23.16
2022-10-08T13:39:05.699Z,23.19
2022-10-08T13:40:39.600Z,23.18
2022-10-08T13:42:19.441Z,23.19
2022-10-08T13:43:52.972Z,23.23
2022-10-08T13:45:28.459Z,23.21
2022-10-08T13:47:03.928Z,23.25
2022-10-08T13:48:44.306Z,23.24
2022-10-08T13:50:18.364Z,23.23
2022-10-08T13:51:51.615Z,23.11
2022-10-08T13:53:27.551Z,23.17
2022-10-08T13:55:03.398Z,23.16
2022-10-08T13:56:36.860Z,23.17
2022-10-08T13:58:14.366Z,23.14
2022-10-08T13:59:46.632Z,23.14
2022-10-08T14:01:21.277Z,23.13
2022-10-08T14:02:54.694Z,23.08
2022-10-08T14:04:28.209Z,23.08
2022-10-08T14:06:01.597Z,23.07
2022-10-08T14:07:37.108Z,23.06
2022-10-08T14:09:16.849Z,23.02
2022-10-08T14:10:51.891Z,22.95
2022-10-08T14:12:28.680Z,22.95
2022-10-08T14:14:00.995Z,22.92
2022-10-08T14:15:34.338Z,22.85
2022-10-08T14:17:07.649Z,22.82
2022-10-08T14:18:41.037Z,22.81
2022-10-08T14:20:14.205Z,22.79
2022-10-08T14:21:49.389Z,22.78
2022-10-08T14:23:22.659Z,22.76
2022-10-08T14:24:57.487Z,22.76
2022-10-08T14:26:31.431Z,22.77
2022-10-08T14:28:04.988Z,22.76
2022-10-08T14:29:38.750Z,22.74
2022-10-08T14:31:14.324Z,22.71
2022-10-08T14:32:48.116Z,22.68
2022-10-08T14:34:21.821Z,22.65
2022-10-08T14:35:54.979Z,22.58
2022-10-08T14:37:28.262Z,22.59
2022-10-08T14:39:01.969Z,22.58
2022-10-08T14:40:37.380Z,22.57
2022-10-08T14:42:10.587Z,22.57
2022-10-08T14:43:44.145Z,22.56
2022-10-08T14:45:17.629Z,22.58
2022-10-08T14:46:52.072Z,22.54
2022-10-08T14:48:25.182Z,22.53
2022-10-08T14:49:58.925Z,22.51
2022-10-08T14:51:38.358Z,22.51
2022-10-08T14:53:11.783Z,22.48
2022-10-08T14:54:45.086Z,22.38
2022-10-08T14:56:20.146Z,22.40
2022-10-08T14:57:53.380Z,22.34
2022-10-08T14:59:26.642Z,22.31
2022-10-08T15:02:34.385Z,22.30
2022-10-08T15:04:08.264Z,22.26
2022-10-08T15:05:41.716Z,22.32
2022-10-08T15:07:15.257Z,22.28
2022-10-08T15:08:48.671Z,22.31
2022-10-08T15:10:21.850Z,22.38
2022-10-08T15:11:56.568Z,22.46
2022-10-08T15:13:31.010Z,22.57
2022-10-08T15:15:04.417Z,22.64
2022-10-08T15:16:39.699Z,22.67
2022-10-08T15:18:13.018Z,22.66
2022-10-08T15:19:46.845Z,22.64
2022-10-08T15:21:20.141Z,22.74
2022-10-08T15:22:53.453Z,22.87
2022-10-08T15:24:26.896Z,23.02
2022-10-08T15:26:02.177Z,22.97
2022-10-08T15:27:36.884Z,22.86
2022-10-08T15:29:10.035Z,22.71
2022-10-08T15:30:44.562Z,22.57
2022-10-08T15:32:18.067Z,22.41
2022-10-08T15:33:53.560Z,22.26
2022-10-08T15:35:26.793Z,22.06
2022-10-08T15:37:00.127Z,21.94
2022-10-08T15:38:33.382Z,21.83
2022-10-08T15:40:07.918Z,21.73
2022-10-08T15:41:43.209Z,21.59
2022-10-08T15:43:17.820Z,21.50
2022-10-08T15:44:51.126Z,21.41
2022-10-08T15:46:26.192Z,21.30
2022-10-08T15:47:59.322Z,21.17
2022-10-08T15:49:33.561Z,21.07
2022-10-08T15:51:07.743Z,20.97
2022-10-08T15:52:45.507Z,20.86
2022-10-08T15:54:19.559Z,20.77
2022-10-08T15:55:56.272Z,20.64
2022-10-08T15:57:29.745Z,20.53
2022-10-08T15:59:05.308Z,20.42
2022-10-08T16:00:38.518Z,20.31
2022-10-08T16:02:16.979Z,20.19
2022-10-08T16:03:53.322Z,20.03
2022-10-08T16:05:26.565Z,19.93
2022-10-08T16:06:59.726Z,19.85
2022-10-08T16:08:33.782Z,19.80
2022-10-08T16:10:08.237Z,19.76
2022-10-08T16:11:41.410Z,19.71
2022-10-08T16:13:14.555Z,19.66
2022-10-08T16:14:49.704Z,19.56
2022-10-08T16:16:23.593Z,19.48
2022-10-08T16:17:56.890Z,19.41
2022-10-08T16:19:30.237Z,19.34
2022-10-08T16:21:04.148Z,19.26
2022-10-08T16:22:37.538Z,19.21
2022-10-08T16:24:11.102Z,19.14
2022-10-08T16:25:45.614Z,19.07
2022-10-08T16:27:19.100Z,19.00
2022-10-08T16:28:56.104Z,18.86
2022-10-08T16:30:30.829Z,18.85
2022-10-08T16:32:04.197Z,18.79
2022-10-08T16:33:37.619Z,18.73
2022-10-08T16:35:11.418Z,18.67
2022-10-08T16:36:45.965Z,18.63
2022-10-08T16:38:19.109Z,18.57
2022-10-08T16:39:52.610Z,18.52
2022-10-08T16:41:28.356Z,18.49
2022-10-08T16:43:01.547Z,18.40
2022-10-08T16:44:34.777Z,18.32
2022-10-08T16:46:16.503Z,18.29
2022-10-08T16:47:49.937Z,18.16
2022-10-08T16:49:26.481Z,18.08
2022-10-08T16:51:04.047Z,18.00
2022-10-08T16:52:38.000Z,17.89
2022-10-08T16:54:12.945Z,17.81
2022-10-08T16:55:46.120Z,17.74
2022-10-08T16:57:20.508Z,17.65
2022-10-08T16:58:54.832Z,17.59
2022-10-08T17:00:28.285Z,17.54
2022-10-08T17:02:03.506Z,17.47
2022-10-08T17:03:36.593Z,17.42
2022-10-08T17:05:10.201Z,17.32
2022-10-08T17:06:43.691Z,17.26
2022-10-08T17:08:16.973Z,17.22
2022-10-08T17:09:50.116Z,17.16
2022-10-08T17:11:22.925Z,17.09
2022-10-08T17:12:56.221Z,16.98
2022-10-08T17:14:30.539Z,17.05
2022-10-08T17:16:07.467Z,17.00
2022-10-08T17:17:42.210Z,16.97
2022-10-08T17:19:15.751Z,16.90
2022-10-08T17:20:50.093Z,16.88
2022-10-08T17:22:23.307Z,16.83
2022-10-08T17:23:59.187Z,16.72
2022-10-08T17:25:32.616Z,16.75
2022-10-08T17:27:06.295Z,16.66
2022-10-08T17:28:41.536Z,16.57
2022-10-08T17:30:15.836Z,16.52
2022-10-08T17:31:49.764Z,16.42
2022-10-08T17:33:23.430Z,16.39
2022-10-08T17:34:56.611Z,16.35
2022-10-08T17:36:31.908Z,16.34
2022-10-08T17:38:05.881Z,16.33
2022-10-08T17:39:39.047Z,16.31
2022-10-08T17:41:13.922Z,16.27
2022-10-08T17:42:47.354Z,16.24
2022-10-08T17:44:20.930Z,16.17
2022-10-08T17:45:53.860Z,16.09
2022-10-08T17:47:29.201Z,16.00
2022-10-08T17:49:04.945Z,15.99
2022-10-08T17:50:38.651Z,15.94
2022-10-08T17:52:11.884Z,15.96
2022-10-08T17:53:45.393Z,15.93
2022-10-08T17:55:19.641Z,15.90
2022-10-08T17:56:53.225Z,15.85
2022-10-08T17:58:26.612Z,15.82
2022-10-08T17:59:59.929Z,15.76
2022-10-08T18:01:35.935Z,15.66
2022-10-08T18:03:10.342Z,15.62
2022-10-08T18:04:44.927Z,15.60
2022-10-08T18:06:18.581Z,15.50
2022-10-08T18:07:51.167Z,15.41
2022-10-08T18:09:24.595Z,15.37
2022-10-08T18:10:57.849Z,15.29
2022-10-08T18:12:31.031Z,15.32
2022-10-08T18:14:05.730Z,15.29
2022-10-08T18:15:39.108Z,15.25
2022-10-08T18:17:12.356Z,15.19
2022-10-08T18:18:45.518Z,15.17
2022-10-08T18:20:20.260Z,15.10
2022-10-08T18:21:53.935Z,14.99
2022-10-08T18:23:29.182Z,14.82
2022-10-08T18:25:04.071Z,14.67
2022-10-08T18:26:37.479Z,14.55
2022-10-08T18:28:09.704Z,14.50
2022-10-08T18:29:43.024Z,14.49
2022-10-08T18:31:17.555Z,14.49
2022-10-08T18:32:51.154Z,14.41
2022-10-08T18:34:25.751Z,14.38
2022-10-08T18:36:08.059Z,14.34
2022-10-08T18:37:41.292Z,14.29
2022-10-08T18:39:16.295Z,14.22
2022-10-08T18:40:49.602Z,14.17
2022-10-08T18:42:22.873Z,14.13
2022-10-08T18:43:57.066Z,14.06
2022-10-08T18:45:31.031Z,14.13
2022-10-08T18:47:05.501Z,14.13
2022-10-08T18:48:39.298Z,14.12
2022-10-08T18:50:12.558Z,14.11
2022-10-08T18:51:48.146Z,14.11
2022-10-08T18:53:21.335Z,14.04
2022-10-08T18:54:55.073Z,13.97
2022-10-08T18:56:30.466Z,13.88
2022-10-08T18:58:03.649Z,13.84
2022-10-08T18:59:36.952Z,13.84
2022-10-08T19:01:17.679Z,13.80
2022-10-08T19:02:54.343Z,13.77
2022-10-08T19:04:27.903Z,13.73
2022-10-08T19:06:00.562Z,13.73
2022-10-08T19:07:35.605Z,13.67
2022-10-08T19:09:09.157Z,13.62
2022-10-08T19:10:42.819Z,13.57
2022-10-08T19:12:16.072Z,13.56
2022-10-08T19:13:50.944Z,13.48
2022-10-08T19:15:24.127Z,13.46
2022-10-08T19:16:57.477Z,13.44
2022-10-08T19:18:30.751Z,13.44
2022-10-08T19:20:04.034Z,13.45
2022-10-08T19:21:38.759Z,13.39
2022-10-08T19:23:13.596Z,13.44
2022-10-08T19:24:47.011Z,13.39
2022-10-08T19:26:19.677Z,13.41
2022-10-08T19:27:52.901Z,13.41
2022-10-08T19:29:29.178Z,13.36
2022-10-08T19:31:02.561Z,13.34
2022-10-08T19:32:35.785Z,13.35
2022-10-08T19:34:09.295Z,13.29
2022-10-08T19:35:42.978Z,13.24
2022-10-08T19:37:16.110Z,13.22
2022-10-08T19:38:53.977Z,13.23
2022-10-08T19:40:27.184Z,13.18
2022-10-08T19:42:00.593Z,13.05
2022-10-08T19:43:33.847Z,13.17
2022-10-08T19:45:07.917Z,13.15
2022-10-08T19:46:41.155Z,13.13
2022-10-08T19:48:15.274Z,13.05
2022-10-08T19:49:48.489Z,13.12
2022-10-08T19:51:22.735Z,13.03
2022-10-08T19:52:56.068Z,13.10
2022-10-08T19:54:31.125Z,13.09
2022-10-08T19:56:04.719Z,13.02
2022-10-08T19:57:38.626Z,13.02
2022-10-08T19:59:13.485Z,13.06
2022-10-08T20:00:47.372Z,13.06
2022-10-08T20:02:20.623Z,13.04
2022-10-08T20:03:55.148Z,12.98
2022-10-08T20:05:28.335Z,12.92
2022-10-08T20:07:02.332Z,12.93
2022-10-08T20:08:35.119Z,12.88
2022-10-08T20:10:10.754Z,12.86
2022-10-08T20:11:45.923Z,12.80
2022-10-08T20:13:19.384Z,12.73
2022-10-08T20:14:52.976Z,12.63
2022-10-08T20:16:28.373Z,12.56
2022-10-08T20:18:01.708Z,12.50
2022-10-08T20:19:35.274Z,12.42
2022-10-08T20:21:10.135Z,12.39
2022-10-08T20:22:43.262Z,12.35
2022-10-08T20:24:17.283Z,12.28
2022-10-08T20:25:52.019Z,12.22
2022-10-08T20:27:25.364Z,12.03
2022-10-08T20:29:00.915Z,11.97
2022-10-08T20:30:34.225Z,11.82
2022-10-08T20:32:07.532Z,11.76
2022-10-08T20:33:41.797Z,11.72
2022-10-08T20:35:15.268Z,11.69
2022-10-08T20:36:49.781Z,11.69
2022-10-08T20:38:22.938Z,11.68
2022-10-08T20:39:56.222Z,11.67
2022-10-08T20:41:31.516Z,11.66
2022-10-08T20:43:04.752Z,11.60
2022-10-08T20:44:37.957Z,11.55
2022-10-08T20:46:12.953Z,11.38
2022-10-08T20:47:46.122Z,11.33
2022-10-08T20:49:20.138Z,11.19
2022-10-08T20:50:53.328Z,11.27
2022-10-08T20:52:26.877Z,11.31
2022-10-08T20:54:02.703Z,11.36
2022-10-08T20:55:38.318Z,11.43
2022-10-08T20:57:13.070Z,11.44
2022-10-08T20:58:47.378Z,11.46
2022-10-08T21:00:20.752Z,11.44
2022-10-08T21:01:54.098Z,11.39
2022-10-08T21:03:26.281Z,11.36
2022-10-08T21:04:59.493Z,11.31
2022-10-08T21:06:37.770Z,11.27
2022-10-08T21:08:10.973Z,11.26
2022-10-08T21:09:44.260Z,11.24
2022-10-08T21:11:19.701Z,11.25
2022-10-08T21:12:54.251Z,11.22
2022-10-08T21:14:27.426Z,11.20
2022-10-08T21:16:00.846Z,11.21
2022-10-08T21:17:34.413Z,11.24
2022-10-08T21:19:11.112Z,11.25
2022-10-08T21:20:44.892Z,11.22
2022-10-08T21:22:18.027Z,11.19
2022-10-08T21:23:51.862Z,11.17
2022-10-08T21:25:25.639Z,11.13
2022-10-08T21:26:58.859Z,11.12
2022-10-08T21:28:32.464Z,11.04
2022-10-08T21:30:06.460Z,11.03
2022-10-08T21:31:41.110Z,11.05
2022-10-08T21:33:14.395Z,11.04
2022-10-08T21:34:47.531Z,11.09
2022-10-08T21:36:22.317Z,11.10
2022-10-08T21:37:55.588Z,11.09
2022-10-08T21:39:28.771Z,11.08
2022-10-08T21:41:03.067Z,11.04
2022-10-08T21:42:36.991Z,10.97
2022-10-08T21:44:11.648Z,10.84
2022-10-08T21:45:54.940Z,10.78
2022-10-08T21:47:29.071Z,10.75
2022-10-08T21:49:04.192Z,10.70
2022-10-08T21:50:37.830Z,10.69
2022-10-08T21:52:11.051Z,10.71
2022-10-08T21:53:46.370Z,10.73
2022-10-08T21:55:19.866Z,10.76
2022-10-08T21:56:54.739Z,10.77
2022-10-08T21:58:29.721Z,10.79
2022-10-08T22:00:08.312Z,10.81
2022-10-08T22:01:48.007Z,10.81
2022-10-08T22:03:21.885Z,10.82
2022-10-08T22:04:55.095Z,10.77
2022-10-08T22:06:29.085Z,10.71
2022-10-08T22:08:02.191Z,10.68
2022-10-08T22:09:35.763Z,10.64
2022-10-08T22:11:07.940Z,10.63
2022-10-08T22:12:41.261Z,10.64
2022-10-08T22:14:14.891Z,10.60
2022-10-08T22:15:54.477Z,10.57
2022-10-08T22:17:27.649Z,10.51
2022-10-08T22:18:59.957Z,10.49
2022-10-08T22:20:33.114Z,10.46
2022-10-08T22:22:06.437Z,10.41
2022-10-08T22:23:40.083Z,10.37
2022-10-08T22:25:13.516Z,10.30
2022-10-08T22:26:48.531Z,10.26
2022-10-08T22:28:22.747Z,10.10
2022-10-08T22:29:55.965Z,10.20
2022-10-08T22:31:31.203Z,10.12
2022-10-08T22:33:04.451Z,10.10
2022-10-08T22:34:37.696Z,10.09
2022-10-08T22:36:12.985Z,10.07
2022-10-08T22:37:46.318Z,10.08
2022-10-08T22:39:19.474Z,10.09
2022-10-08T22:40:51.915Z,10.12
2022-10-08T22:42:25.078Z,10.14
2022-10-08T22:43:59.273Z,10.14
2022-10-08T22:45:32.686Z,10.13
2022-10-08T22:47:07.369Z,10.12
2022-10-08T22:48:40.701Z,10.06
2022-10-08T22:50:14.018Z,10.01
2022-10-08T22:51:47.382Z,9.94
2022-10-08T22:53:19.601Z,9.86